Huvudsida
METAR-TAF:

METAR-TAF

Flygplatser :

Pescara, Italien

latitud: 42-26N, longitud: 014-12E, höjd: 10 m

Aktuellt väderrapport

Denna rapport gjordes för 28 minuter sedan, klockan 03:50 UTC
Vind 4 kt från syd/sydväst
Temperatur 17°C
Fuktighet 94%
Tryck 1015 hPa
Sikt 10 km eller mer

METAR: LIBP 190350Z AUTO 20004KT 9999 NCD 17/16 Q1015

Tid: 06:18 (04:18 UTC)

Väderprognos

Denna rapport gjordes för 5 timmar och 18 minuter sedan, klockan 23:00 UTC
Prognos gäller från 19 kl. 00 UTC till 19 kl. 24 UTC
Vind 4 kt varierande vindriktning
Sikt 10 km eller mer
Få moln på en höjd av 3000 ft
Blir
från 19 kl. 09 UTC till 19 kl. 11 UTC
Vind 10 kt från ost/nordost
Blir
från 19 kl. 16 UTC till 19 kl. 18 UTC
Vind 5 kt varierande vindriktning

TAF: LIBP 182300Z 1900/1924 VRB04KT 9999 FEW030 BECMG 1909/1911 06010KT BECMG 1916/1918 VRB05KT

Aktuella väderrapporter och prognoser från 4000 flygplatser (METAR- och TAF-rapporter).

De tillgängliga stationerna syns som gula och röda prickar på kartan.

För musen över prickarna för att se namnen på stationerna.

Klicka sedan för att få väderrapporter och prognoser.

För att ändra kartan: Klicka på de gröna knapparna med ett svart kors på för att zooma in; den gröna knappen med ett streck på för att zooma ut; eller på de gröna pilarna för angränsande kartor.


METAR-TAF: